Shannon, Ireland

10:01 AM IST on September 01, 2015 (GMT +0100)
Shannon | | Change Station
CLOSE
Current Station
Airport
Location: Shannon,
Elevation: 66 ft
Nearby Weather Stations

Elev 66 ft 52.70 °N, 8.92 °W | Updated 31 minutes ago

Scattered Clouds
Scattered Clouds
54 °F
Feels Like 54 °F
N
8
Wind Variable Wind from NNW

Today
High -- | Low -- °F
--% Chance of Precip.
Yesterday
High -- | Low -- °F
Precip. -- in
6:45 AM 8:24 PM
Waning Gibbous, 90% visible
Pressure 30.24 in
Visibility 6.2 miles
Clouds Few 1500 ft
Scattered Clouds 4500 ft
Dew Point 48 °F
Humidity 82%
Rainfall 0.00 in
Snow Depth Not available.
UV 1 out of 12
Pollen Not available.
Air Quality Not available.
Flu Activity Not available.
METAR EINN 010830Z 33007KT 9999 FEW015 SCT045 12/09 Q1024 NOSIG
Pressure 30.24 in
Visibility 6.2 miles
Clouds Few 1500 ft
Scattered Clouds 4500 ft
Dew Point 48 °F
Humidity 82%
Rainfall 0.00 in
Snow Depth Not available.
UV 1 out of 12
Pollen Not available.
Air Quality Not available.
Flu Activity Not available.
METAR EINN 010830Z 33007KT 9999 FEW015 SCT045 12/09 Q1024 NOSIG

10-Day Weather Forecast

×

Almanac

Astronomy

Sep. 01, 2015 Rise Set
Actual Time
Civil Twilight
Nautical Twilight
Astronomical Twilight
Moon
Length of Visible Light
Length of Day
Tomorrow will be .
, % of the Moon is Illuminated

Today's Extremes

Country Highs Country Lows

Community

WunderPhotos

Upload Photos

1,851,490 photos uploaded!

WunderBlogs® & News

Nearby

Air Quality

  Air Quality AQ Index Pollutant
Not available.

Snow Depth

Station Depth Elevation

Earthquake Activity

City Distance Mag. Time & Date
Minimum magnitude displayed is 2.5.

Coastal Water Temperatures

Place Temperature

Stations

Nearby Weather Stations

Station Location Temp. Windchill Dew Point Humidity Wind Precip. Elev Updated Type